Time;durP1;ratioP1;P1;durP2;ratioP2;P2;SDS_P1;SDS_P2;PMS_P1;PMS_P2;Temp;Humidity;BMP_temperature;BMP_pressure;BME280_temperature;BME280_humidity;BME280_pressure;Samples;Min_cycle;Max_cycle;Signal;HPM_P1;HPM_P2
2021/04/10 00:02:14;;;;;;;;;;;9.20;90.70;;;;;;5034793;28;19932;-85
2021/04/10 00:04:39;;;;;;;;;;;9.20;90.80;;;;;;5052910;28;19905;-86
2021/04/10 00:07:05;;;;;;;;;;;9.20;91.00;;;;;;5034987;28;19912;-86
2021/04/10 00:09:30;;;;;;;;;;;9.20;90.80;;;;;;5034189;28;20341;-86
2021/04/10 00:11:56;;;;;;;;;;;9.20;91.20;;;;;;5034766;28;20277;-86
2021/04/10 00:14:21;;;;;;;;;;;9.30;91.70;;;;;;5034773;28;19904;-86
2021/04/10 00:16:47;;;;;;;;;;;9.30;91.90;;;;;;5034759;28;20411;-86
2021/04/10 00:19:13;;;;;;;;;;;9.30;92.10;;;;;;5051827;28;20731;-86
2021/04/10 00:21:38;;;;;;;;;;;9.30;92.30;;;;;;5052469;28;19915;-86
2021/04/10 00:24:06;;;;;;;;;;;9.20;92.60;;;;;;5034757;28;19991;-86
2021/04/10 00:26:31;;;;;;;;;;;9.20;92.90;;;;;;5052256;28;19909;-86
2021/04/10 00:28:56;;;;;;;;;;;9.20;93.40;;;;;;5034187;28;19909;-86
2021/04/10 00:31:22;;;;;;;;;;;9.10;93.50;;;;;;5051973;28;19954;-86
2021/04/10 00:33:47;;;;;;;;;;;9.20;93.70;;;;;;5034410;28;19911;-85
2021/04/10 00:36:13;;;;;;;;;;;9.20;93.70;;;;;;5052440;28;19912;-86
2021/04/10 00:38:39;;;;;;;;;;;9.20;93.50;;;;;;5034586;28;19916;-85
2021/04/10 00:41:06;;;;;;;;;;;9.20;93.60;;;;;;5034000;28;19905;-85
2021/04/10 00:43:32;;;;;;;;;;;9.20;93.50;;;;;;5052176;28;20357;-85
2021/04/10 00:45:57;;;;;;;;;;;9.10;93.60;;;;;;5053240;28;19905;-86
2021/04/10 00:48:23;;;;;;;;;;;9.10;93.80;;;;;;5037901;28;19932;-86
2021/04/10 00:50:50;;;;;;;;;;;9.10;93.70;;;;;;5055187;28;19909;-86
2021/04/10 00:53:17;;;;;;;;;;;9.00;94.00;;;;;;5037712;28;20441;-86
2021/04/10 00:55:45;;;;;;;;;;;9.00;94.10;;;;;;5055806;28;19944;-86
2021/04/10 00:58:10;;;;;;;;;;;9.00;94.10;;;;;;5037998;28;19905;-86
2021/04/10 01:00:36;;;;;;;;;;;9.00;94.20;;;;;;5037237;28;19912;-86
2021/04/10 01:03:02;;;;;;;;;;;9.00;94.50;;;;;;5037684;28;19904;-86
2021/04/10 01:05:28;;;;;;;;;;;9.00;94.50;;;;;;5055515;28;19917;-86
2021/04/10 01:07:53;;;;;;;;;;;9.00;94.60;;;;;;5037692;28;20276;-86
2021/04/10 01:10:20;;;;;;;;;;;9.00;94.70;;;;;;5054994;28;20365;-86
2021/04/10 01:12:51;;;;;;;;;;;8.90;94.70;;;;;;5037582;28;20332;-86
2021/04/10 01:15:16;;;;;;;;;;;8.90;94.90;;;;;;5055398;28;20000;-86
2021/04/10 01:18:11;;;;;;;;;;;8.90;95.00;;;;;;5037738;28;19948;-86
2021/04/10 01:20:55;;;;;;;;;;;8.90;95.00;;;;;;5041429;28;20003;-85
2021/04/10 01:23:27;;;;;;;;;;;8.90;95.10;;;;;;5055279;28;19995;-86
2021/04/10 01:25:52;;;;;;;;;;;8.90;95.10;;;;;;5037352;28;19905;-86
2021/04/10 01:28:30;;;;;;;;;;;8.90;95.20;;;;;;5037235;28;19958;-85
2021/04/10 01:30:58;;;;;;;;;;;9.00;95.30;;;;;;5054376;28;20361;-86
2021/04/10 01:33:28;;;;;;;;;;;8.90;95.30;;;;;;5054920;28;19904;-86
2021/04/10 01:35:56;;;;;;;;;;;8.90;95.30;;;;;;5037295;28;20038;-86
2021/04/10 01:38:25;;;;;;;;;;;8.90;95.60;;;;;;5037130;28;19905;-86
2021/04/10 01:40:52;;;;;;;;;;;8.90;95.60;;;;;;5036569;28;19905;-85
2021/04/10 01:43:18;;;;;;;;;;;9.00;95.60;;;;;;5072490;23;20372;-83
2021/04/10 01:45:45;;;;;;;;;;;8.90;95.60;;;;;;5064675;28;19968;-83
2021/04/10 01:48:11;;;;;;;;;;;8.90;95.70;;;;;;5064151;28;19958;-83
2021/04/10 01:50:38;;;;;;;;;;;8.90;95.70;;;;;;5062774;28;19908;-83
2021/04/10 01:53:05;;;;;;;;;;;8.80;95.80;;;;;;5064047;28;19905;-83
2021/04/10 01:55:31;;;;;;;;;;;8.90;95.80;;;;;;5047768;28;19912;-83
2021/04/10 01:57:56;;;;;;;;;;;8.80;95.80;;;;;;5064403;28;19912;-83
2021/04/10 02:00:24;;;;;;;;;;;8.90;95.80;;;;;;5064857;28;19909;-83
2021/04/10 02:02:50;;;;;;;;;;;8.80;95.90;;;;;;5046703;28;19905;-84
2021/04/10 02:05:16;;;;;;;;;;;8.80;95.90;;;;;;5059350;28;19904;-85
2021/04/10 02:07:43;;;;;;;;;;;8.90;96.00;;;;;;5058585;28;19909;-85
2021/04/10 02:10:09;;;;;;;;;;;8.80;95.90;;;;;;5056366;28;19908;-85
2021/04/10 02:12:35;;;;;;;;;;;8.80;95.90;;;;;;5040574;28;19904;-85
2021/04/10 02:15:02;;;;;;;;;;;8.80;96.10;;;;;;5040255;28;19911;-86
2021/04/10 02:17:28;;;;;;;;;;;8.80;96.10;;;;;;5058167;28;19905;-85
2021/04/10 02:19:54;;;;;;;;;;;8.80;96.30;;;;;;5039336;28;20365;-85
2021/04/10 02:22:21;;;;;;;;;;;8.70;96.40;;;;;;5038511;28;19909;-85
2021/04/10 02:24:47;;;;;;;;;;;8.80;96.40;;;;;;5039229;28;20357;-85
2021/04/10 02:27:13;;;;;;;;;;;8.80;96.30;;;;;;5040234;28;19999;-85
2021/04/10 02:29:39;;;;;;;;;;;8.70;96.40;;;;;;5057256;28;19967;-85
2021/04/10 02:32:09;;;;;;;;;;;8.80;96.50;;;;;;5039846;28;20309;-85
2021/04/10 02:34:41;;;;;;;;;;;8.80;96.60;;;;;;5057687;28;19904;-85
2021/04/10 02:37:07;;;;;;;;;;;8.70;96.50;;;;;;5057963;28;20009;-85
2021/04/10 02:39:34;;;;;;;;;;;8.70;96.50;;;;;;5039174;28;19913;-86
2021/04/10 02:42:01;;;;;;;;;;;8.70;96.70;;;;;;5057675;28;19905;-85
2021/04/10 02:44:30;;;;;;;;;;;8.80;96.80;;;;;;5057994;28;20335;-86
2021/04/10 02:46:57;;;;;;;;;;;8.80;96.50;;;;;;5057477;28;20380;-85
2021/04/10 02:49:24;;;;;;;;;;;8.90;96.40;;;;;;5060560;28;19951;-83
2021/04/10 02:51:50;;;;;;;;;;;8.90;96.40;;;;;;5045704;28;19956;-84
2021/04/10 02:54:17;;;;;;;;;;;8.90;96.40;;;;;;5044889;28;19904;-84
2021/04/10 02:56:45;;;;;;;;;;;8.90;96.50;;;;;;5062366;28;19908;-83
2021/04/10 02:59:12;;;;;;;;;;;8.90;96.50;;;;;;5043809;28;19968;-84
2021/04/10 03:01:38;;;;;;;;;;;8.90;96.60;;;;;;5044133;28;19904;-83
2021/04/10 03:04:05;;;;;;;;;;;8.80;96.70;;;;;;5062277;28;19904;-84
2021/04/10 03:06:31;;;;;;;;;;;8.80;96.90;;;;;;5045297;28;19959;-84
2021/04/10 03:08:57;;;;;;;;;;;8.80;96.80;;;;;;5045163;28;19909;-84
2021/04/10 03:11:22;;;;;;;;;;;8.80;96.80;;;;;;5047201;28;19948;-84
2021/04/10 03:13:48;;;;;;;;;;;8.80;96.90;;;;;;5055818;28;19911;-84
2021/04/10 03:16:14;;;;;;;;;;;8.80;96.90;;;;;;5075613;28;19955;-83
2021/04/10 03:18:42;;;;;;;;;;;8.80;96.90;;;;;;5057626;28;19892;-83
2021/04/10 03:21:08;;;;;;;;;;;8.80;96.90;;;;;;5056606;28;20009;-83
2021/04/10 03:23:33;;;;;;;;;;;8.80;97.00;;;;;;5048367;28;19908;-84
2021/04/10 03:25:59;;;;;;;;;;;8.80;97.10;;;;;;5062443;28;19905;-83
2021/04/10 03:28:27;;;;;;;;;;;8.80;97.00;;;;;;5044391;28;19958;-84
2021/04/10 03:30:53;;;;;;;;;;;8.80;97.10;;;;;;5044571;28;19908;-84
2021/04/10 03:33:19;;;;;;;;;;;8.90;97.10;;;;;;5044693;28;19912;-84
2021/04/10 03:35:44;;;;;;;;;;;8.90;96.90;;;;;;5044842;28;19904;-84
2021/04/10 03:38:10;;;;;;;;;;;8.80;96.90;;;;;;5062690;28;19927;-84
2021/04/10 03:40:35;;;;;;;;;;;8.80;97.00;;;;;;5050124;28;19909;-84
2021/04/10 03:43:01;;;;;;;;;;;8.70;97.10;;;;;;5057968;28;19913;-83
2021/04/10 03:45:26;;;;;;;;;;;8.70;97.10;;;;;;5057863;28;19904;-83
2021/04/10 03:47:52;;;;;;;;;;;8.70;97.20;;;;;;5057406;28;19916;-84
2021/04/10 03:50:18;;;;;;;;;;;8.70;97.20;;;;;;5055957;28;19915;-83
2021/04/10 03:52:44;;;;;;;;;;;8.60;97.30;;;;;;5055709;28;19897;-83
2021/04/10 03:55:12;;;;;;;;;;;8.70;97.10;;;;;;5044624;28;19947;-83
2021/04/10 03:57:37;;;;;;;;;;;8.60;97.20;;;;;;5039581;28;19934;-82
2021/04/10 04:00:03;;;;;;;;;;;8.60;97.30;;;;;;5053493;28;20398;-83
2021/04/10 04:02:29;;;;;;;;;;;8.60;97.40;;;;;;5057634;28;19904;-82
2021/04/10 04:04:54;;;;;;;;;;;8.50;97.60;;;;;;5039743;28;19912;-83
2021/04/10 04:07:20;;;;;;;;;;;8.60;97.60;;;;;;5039548;28;19904;-83
2021/04/10 04:09:46;;;;;;;;;;;8.60;97.70;;;;;;5057231;28;19908;-83
2021/04/10 04:12:11;;;;;;;;;;;8.60;97.40;;;;;;5040006;28;20362;-83
2021/04/10 04:14:37;;;;;;;;;;;8.60;97.40;;;;;;5039741;28;19915;-83
2021/04/10 04:17:05;;;;;;;;;;;8.60;97.30;;;;;;5039584;28;19909;-83
2021/04/10 04:19:31;;;;;;;;;;;8.60;97.30;;;;;;5038400;28;19909;-83
2021/04/10 04:21:57;;;;;;;;;;;8.60;97.40;;;;;;5059793;28;19954;-83
2021/04/10 04:24:22;;;;;;;;;;;8.60;97.30;;;;;;5061265;28;19909;-83
2021/04/10 04:26:48;;;;;;;;;;;8.60;97.40;;;;;;5059880;28;19909;-83
2021/04/10 04:29:13;;;;;;;;;;;8.60;97.40;;;;;;5041689;28;20365;-83
2021/04/10 04:31:39;;;;;;;;;;;8.60;97.40;;;;;;5041339;28;19905;-83
2021/04/10 04:34:04;;;;;;;;;;;8.60;97.40;;;;;;5041128;28;19905;-82
2021/04/10 04:36:30;;;;;;;;;;;8.60;97.30;;;;;;5041075;28;20000;-83
2021/04/10 04:38:55;;;;;;;;;;;8.70;97.20;;;;;;5040269;28;19905;-83
2021/04/10 04:41:21;;;;;;;;;;;8.70;96.80;;;;;;5058437;28;19905;-83
2021/04/10 04:43:47;;;;;;;;;;;8.70;96.50;;;;;;5058504;28;20369;-83
2021/04/10 04:46:13;;;;;;;;;;;8.70;96.40;;;;;;5040220;28;19915;-82
2021/04/10 04:48:38;;;;;;;;;;;8.70;95.90;;;;;;5040353;28;20008;-83
2021/04/10 04:51:04;;;;;;;;;;;8.70;95.50;;;;;;5038680;28;19951;-83
2021/04/10 04:53:29;;;;;;;;;;;8.70;95.40;;;;;;5039422;28;20319;-84
2021/04/10 04:55:55;;;;;;;;;;;8.70;95.00;;;;;;5038529;28;20387;-83
2021/04/10 04:58:21;;;;;;;;;;;8.70;95.20;;;;;;5038556;28;19904;-82
2021/04/10 05:00:47;;;;;;;;;;;8.70;95.10;;;;;;5055625;28;19909;-82
2021/04/10 05:03:12;;;;;;;;;;;8.60;94.70;;;;;;5038294;28;20003;-82
2021/04/10 05:05:38;;;;;;;;;;;8.60;94.90;;;;;;5038346;28;20408;-83
2021/04/10 05:08:04;;;;;;;;;;;8.60;94.90;;;;;;5037813;28;19904;-83
2021/04/10 05:10:29;;;;;;;;;;;8.60;94.90;;;;;;5053801;28;19904;-82
2021/04/10 05:12:55;;;;;;;;;;;8.70;94.90;;;;;;5037469;28;19905;-83
2021/04/10 05:15:20;;;;;;;;;;;8.70;94.90;;;;;;5037517;28;19905;-83
2021/04/10 05:17:46;;;;;;;;;;;8.70;94.60;;;;;;5055411;28;19905;-83
2021/04/10 05:20:12;;;;;;;;;;;8.70;94.50;;;;;;5040582;28;19905;-83
2021/04/10 05:22:38;;;;;;;;;;;8.60;94.60;;;;;;5042697;28;19905;-83
2021/04/10 05:25:04;;;;;;;;;;;8.70;94.70;;;;;;5043185;28;19944;-83
2021/04/10 05:27:29;;;;;;;;;;;8.70;94.70;;;;;;5061794;28;19908;-83
2021/04/10 05:29:55;;;;;;;;;;;8.60;94.60;;;;;;5042759;28;19962;-83
2021/04/10 05:32:20;;;;;;;;;;;8.70;94.60;;;;;;5042864;28;19904;-83
2021/04/10 05:34:46;;;;;;;;;;;8.70;94.30;;;;;;5043255;28;19905;-83
2021/04/10 05:37:12;;;;;;;;;;;8.70;94.30;;;;;;5061950;28;19905;-83
2021/04/10 05:39:39;;;;;;;;;;;8.70;94.30;;;;;;5044525;28;19904;-83
2021/04/10 05:42:05;;;;;;;;;;;8.70;94.30;;;;;;5043949;28;19948;-83
2021/04/10 05:44:30;;;;;;;;;;;8.60;94.20;;;;;;5044117;28;19912;-83
2021/04/10 05:46:56;;;;;;;;;;;8.70;94.40;;;;;;5044348;28;19950;-83
2021/04/10 05:49:21;;;;;;;;;;;8.70;94.30;;;;;;5061742;28;19916;-83
2021/04/10 05:51:47;;;;;;;;;;;8.70;94.50;;;;;;5061116;28;19905;-83
2021/04/10 05:54:12;;;;;;;;;;;8.70;94.30;;;;;;5059539;28;20376;-83
2021/04/10 05:56:38;;;;;;;;;;;8.70;94.40;;;;;;5042557;28;20003;-83
2021/04/10 05:59:03;;;;;;;;;;;8.70;94.40;;;;;;5059947;28;19905;-83
2021/04/10 06:01:29;;;;;;;;;;;8.70;94.50;;;;;;5043114;28;19905;-83
2021/04/10 06:03:55;;;;;;;;;;;8.70;94.30;;;;;;5041878;28;20357;-83
2021/04/10 06:06:21;;;;;;;;;;;8.70;94.30;;;;;;5042148;28;19920;-83
2021/04/10 06:08:46;;;;;;;;;;;8.70;94.30;;;;;;5060747;28;19909;-83
2021/04/10 06:11:12;;;;;;;;;;;8.70;94.40;;;;;;5059048;28;20011;-83
2021/04/10 06:13:37;;;;;;;;;;;8.70;94.40;;;;;;5042210;28;19952;-83
2021/04/10 06:16:07;;;;;;;;;;;8.80;94.40;;;;;;5040064;28;19909;-83
2021/04/10 06:18:33;;;;;;;;;;;8.80;94.30;;;;;;5041066;28;19916;-83
2021/04/10 06:20:58;;;;;;;;;;;8.80;94.10;;;;;;5040653;28;19905;-83
2021/04/10 06:23:24;;;;;;;;;;;8.80;94.10;;;;;;5042627;28;19914;-83
2021/04/10 06:25:49;;;;;;;;;;;8.80;94.20;;;;;;5043664;28;19905;-83
2021/04/10 06:28:15;;;;;;;;;;;8.90;94.10;;;;;;5038230;28;19932;-84
2021/04/10 06:30:41;;;;;;;;;;;8.80;94.00;;;;;;5055923;28;19905;-83
2021/04/10 06:33:06;;;;;;;;;;;8.90;94.20;;;;;;5056089;28;19915;-84
2021/04/10 06:35:32;;;;;;;;;;;8.80;94.00;;;;;;5055510;28;19916;-84
2021/04/10 06:37:57;;;;;;;;;;;8.80;94.00;;;;;;5039492;28;19904;-83
2021/04/10 06:40:23;;;;;;;;;;;8.80;94.00;;;;;;5042556;28;19904;-83
2021/04/10 06:42:48;;;;;;;;;;;8.80;94.00;;;;;;5043694;28;19913;-83
2021/04/10 06:45:14;;;;;;;;;;;8.80;94.00;;;;;;5043122;28;19904;-83
2021/04/10 06:47:40;;;;;;;;;;;8.80;93.90;;;;;;5042398;28;19905;-83
2021/04/10 06:50:06;;;;;;;;;;;8.80;94.10;;;;;;5042176;28;20284;-83
2021/04/10 06:52:35;;;;;;;;;;;8.90;94.00;;;;;;5042234;28;19904;-82
2021/04/10 06:55:07;;;;;;;;;;;8.90;93.90;;;;;;5061797;28;20380;-83
2021/04/10 06:57:35;;;;;;;;;;;8.80;93.90;;;;;;5043192;28;19912;-83
2021/04/10 07:00:04;;;;;;;;;;;8.90;94.00;;;;;;5042419;28;20548;-83
2021/04/10 07:02:30;;;;;;;;;;;8.90;94.10;;;;;;5043822;28;20000;-83
2021/04/10 07:04:56;;;;;;;;;;;8.90;94.10;;;;;;5041503;28;20002;-84
2021/04/10 07:07:23;;;;;;;;;;;8.90;94.00;;;;;;5043517;28;19948;-83
2021/04/10 07:09:48;;;;;;;;;;;8.90;94.20;;;;;;5061468;28;20355;-84
2021/04/10 07:12:14;;;;;;;;;;;8.90;94.20;;;;;;5043990;28;19968;-84
2021/04/10 07:14:39;;;;;;;;;;;8.90;94.20;;;;;;5044038;28;19987;-84
2021/04/10 07:17:05;;;;;;;;;;;9.00;94.20;;;;;;5062178;28;20361;-83
2021/04/10 07:19:30;;;;;;;;;;;9.00;94.30;;;;;;5043379;28;20014;-83
2021/04/10 07:22:03;;;;;;;;;;;9.00;94.10;;;;;;5062530;28;19943;-84
2021/04/10 07:24:34;;;;;;;;;;;9.00;94.00;;;;;;5044468;28;20382;-84
2021/04/10 07:27:00;;;;;;;;;;;9.10;94.00;;;;;;5044569;28;19908;-83
2021/04/10 07:29:39;;;;;;;;;;;9.10;93.90;;;;;;5043539;28;19916;-83
2021/04/10 07:32:24;;;;;;;;;;;9.10;93.90;;;;;;5043642;28;19919;-82
2021/04/10 07:34:50;;;;;;;;;;;9.00;93.90;;;;;;5044660;28;19911;-83
2021/04/10 07:37:35;;;;;;;;;;;9.00;94.00;;;;;;5060955;28;19904;-83
2021/04/10 07:40:03;;;;;;;;;;;9.10;94.00;;;;;;5043973;28;19904;-83
2021/04/10 07:42:29;;;;;;;;;;;9.10;94.00;;;;;;5043128;28;19909;-83
2021/04/10 07:44:55;;;;;;;;;;;9.10;93.80;;;;;;5037253;28;19904;-83
2021/04/10 07:47:41;;;;;;;;;;;9.00;93.90;;;;;;5035963;28;20380;-83
2021/04/10 07:50:12;;;;;;;;;;;9.00;94.00;;;;;;5034643;28;20381;-83
2021/04/10 07:52:38;;;;;;;;;;;9.10;94.20;;;;;;5036044;28;19905;-83
2021/04/10 07:55:04;;;;;;;;;;;9.10;94.10;;;;;;5037225;28;19911;-84
2021/04/10 07:57:29;;;;;;;;;;;9.10;94.00;;;;;;5059591;28;19904;-83
2021/04/10 07:59:56;;;;;;;;;;;9.10;94.00;;;;;;5057488;28;20003;-83
2021/04/10 08:02:22;;;;;;;;;;;9.20;94.10;;;;;;5039954;28;19908;-83
2021/04/10 08:04:57;;;;;;;;;;;9.20;94.00;;;;;;5039723;28;19904;-83
2021/04/10 08:07:24;;;;;;;;;;;9.20;93.80;;;;;;5057334;28;20309;-83
2021/04/10 08:09:55;;;;;;;;;;;9.20;93.80;;;;;;5038550;28;19943;-84
2021/04/10 08:12:25;;;;;;;;;;;9.10;93.70;;;;;;5039920;28;20276;-83
2021/04/10 08:14:50;;;;;;;;;;;9.20;93.80;;;;;;5039559;28;20361;-82
2021/04/10 08:17:31;;;;;;;;;;;9.20;93.80;;;;;;5039257;28;19912;-83
2021/04/10 08:20:15;;;;;;;;;;;9.30;93.80;;;;;;5056609;28;19911;-82
2021/04/10 08:22:41;;;;;;;;;;;9.30;93.80;;;;;;5039053;28;20353;-83
2021/04/10 08:25:08;;;;;;;;;;;9.30;93.60;;;;;;5038983;28;19911;-83
2021/04/10 08:27:33;;;;;;;;;;;9.40;93.60;;;;;;5055974;28;19931;-84
2021/04/10 08:29:59;;;;;;;;;;;9.40;93.30;;;;;;5056127;28;19909;-83
2021/04/10 08:32:24;;;;;;;;;;;9.30;93.50;;;;;;5038755;28;19914;-84
2021/04/10 08:34:50;;;;;;;;;;;9.30;93.40;;;;;;5057026;28;19905;-83
2021/04/10 08:37:16;;;;;;;;;;;9.40;93.40;;;;;;5039284;28;19905;-83
2021/04/10 08:39:46;;;;;;;;;;;9.40;93.50;;;;;;5038981;28;19912;-82
2021/04/10 08:42:12;;;;;;;;;;;9.50;93.30;;;;;;5038718;28;19942;-82
2021/04/10 08:44:39;;;;;;;;;;;9.50;93.20;;;;;;5039057;28;19932;-83
2021/04/10 08:47:04;;;;;;;;;;;9.50;93.20;;;;;;5056956;28;20287;-83
2021/04/10 08:49:36;;;;;;;;;;;9.40;93.30;;;;;;5056221;28;20046;-82
2021/04/10 08:52:05;;;;;;;;;;;9.50;93.40;;;;;;5055899;28;19909;-83
2021/04/10 08:54:34;;;;;;;;;;;9.50;93.10;;;;;;5039593;28;20345;-82
2021/04/10 08:57:04;;;;;;;;;;;9.40;93.30;;;;;;5056917;28;20005;-83
2021/04/10 08:59:37;;;;;;;;;;;9.40;93.40;;;;;;5038354;28;19944;-83
2021/04/10 09:02:19;;;;;;;;;;;9.40;93.40;;;;;;5057109;28;19912;-84
2021/04/10 09:04:52;;;;;;;;;;;9.40;93.40;;;;;;5055988;28;20238;-83
2021/04/10 09:07:17;;;;;;;;;;;9.40;93.40;;;;;;5038294;28;20350;-82
2021/04/10 09:09:46;;;;;;;;;;;9.50;93.50;;;;;;5038697;28;19909;-83
2021/04/10 09:12:16;;;;;;;;;;;9.50;93.40;;;;;;5056828;28;19927;-83
2021/04/10 09:14:43;;;;;;;;;;;9.50;93.30;;;;;;5039094;28;19912;-83
2021/04/10 09:17:08;;;;;;;;;;;9.50;93.20;;;;;;5039261;28;20327;-83
2021/04/10 09:19:35;;;;;;;;;;;9.50;93.40;;;;;;5055673;28;19905;-83
2021/04/10 09:22:01;;;;;;;;;;;9.50;93.40;;;;;;5039193;28;19912;-83
2021/04/10 09:24:29;;;;;;;;;;;9.50;93.60;;;;;;5057426;28;20258;-83
2021/04/10 09:26:56;;;;;;;;;;;9.50;93.30;;;;;;5039689;28;19904;-83
2021/04/10 09:29:22;;;;;;;;;;;9.50;93.30;;;;;;5056749;28;19909;-83
2021/04/10 09:31:51;;;;;;;;;;;9.50;93.30;;;;;;5055363;28;20369;-84
2021/04/10 09:34:35;;;;;;;;;;;9.50;93.40;;;;;;5055398;28;19905;-83
2021/04/10 09:37:01;;;;;;;;;;;9.50;93.30;;;;;;5038397;28;20269;-83
2021/04/10 09:39:45;;;;;;;;;;;9.50;93.30;;;;;;5038567;28;19904;-83
2021/04/10 09:42:30;;;;;;;;;;;9.50;93.40;;;;;;5039144;28;21201;-83
2021/04/10 09:45:07;;;;;;;;;;;9.40;93.40;;;;;;5039049;28;19909;-84
2021/04/10 09:47:51;;;;;;;;;;;9.40;93.40;;;;;;5057372;28;19916;-83
2021/04/10 09:50:16;;;;;;;;;;;9.40;93.50;;;;;;5038579;28;19909;-83
2021/04/10 09:52:42;;;;;;;;;;;9.40;93.80;;;;;;5038776;28;20296;-84
2021/04/10 09:55:08;;;;;;;;;;;9.50;93.90;;;;;;5055475;28;19905;-83
2021/04/10 09:57:33;;;;;;;;;;;9.50;93.90;;;;;;5038945;28;19908;-83
2021/04/10 09:59:59;;;;;;;;;;;9.50;94.00;;;;;;5038492;28;19912;-82
2021/04/10 10:02:27;;;;;;;;;;;9.50;94.00;;;;;;5038326;28;19905;-83
2021/04/10 10:04:53;;;;;;;;;;;9.50;94.10;;;;;;5056451;28;19908;-83
2021/04/10 10:07:22;;;;;;;;;;;9.50;94.40;;;;;;5056497;28;19911;-83
2021/04/10 10:10:04;;;;;;;;;;;9.50;94.70;;;;;;5055919;28;19912;-85
2021/04/10 10:12:30;;;;;;;;;;;9.50;94.60;;;;;;5038805;28;20376;-84
2021/04/10 10:14:55;;;;;;;;;;;9.50;94.80;;;;;;5038205;28;19919;-83
2021/04/10 10:17:26;;;;;;;;;;;9.50;94.80;;;;;;5056007;28;19904;-84
2021/04/10 10:20:06;;;;;;;;;;;9.50;94.90;;;;;;5054448;28;19912;-83
2021/04/10 10:22:33;;;;;;;;;;;9.50;94.80;;;;;;5054199;28;19909;-82
2021/04/10 10:25:03;;;;;;;;;;;9.60;95.00;;;;;;5037984;28;20269;-83
2021/04/10 10:27:38;;;;;;;;;;;9.60;94.90;;;;;;5055370;28;19950;-84
2021/04/10 10:30:17;;;;;;;;;;;9.60;95.20;;;;;;5036723;28;19908;-82
2021/04/10 10:32:47;;;;;;;;;;;9.60;95.20;;;;;;5036479;28;19908;-84
2021/04/10 10:35:19;;;;;;;;;;;9.60;95.20;;;;;;5036969;28;20050;-83
2021/04/10 10:37:49;;;;;;;;;;;9.60;95.20;;;;;;5036281;28;19912;-83
2021/04/10 10:40:26;;;;;;;;;;;9.70;95.40;;;;;;5035961;28;20269;-83
2021/04/10 10:43:00;;;;;;;;;;;9.70;95.60;;;;;;5036099;28;19912;-84
2021/04/10 10:45:44;;;;;;;;;;;9.70;95.60;;;;;;5056414;28;20000;-83
2021/04/10 10:48:26;;;;;;;;;;;9.70;95.50;;;;;;5055247;28;19931;-83
2021/04/10 10:50:53;;;;;;;;;;;9.70;95.70;;;;;;5036504;28;19904;-83
2021/04/10 10:53:23;;;;;;;;;;;9.70;96.10;;;;;;5054994;28;19904;-84
2021/04/10 10:55:55;;;;;;;;;;;9.60;95.70;;;;;;5037593;28;19927;-82
2021/04/10 10:58:21;;;;;;;;;;;9.60;96.10;;;;;;5054818;28;20327;-83
2021/04/10 11:00:47;;;;;;;;;;;9.60;96.20;;;;;;5054674;28;19905;-83
2021/04/10 11:03:20;;;;;;;;;;;9.60;96.30;;;;;;5037320;28;19908;-82
2021/04/10 11:05:48;;;;;;;;;;;9.60;96.50;;;;;;5053520;28;19905;-83
2021/04/10 11:08:14;;;;;;;;;;;9.60;96.90;;;;;;5037134;28;19904;-83
2021/04/10 11:10:40;;;;;;;;;;;9.60;97.10;;;;;;5037030;28;19905;-84
2021/04/10 11:13:05;;;;;;;;;;;9.60;97.10;;;;;;5055162;28;19919;-83
2021/04/10 11:15:31;;;;;;;;;;;9.60;96.90;;;;;;5037069;28;20388;-83
2021/04/10 11:17:57;;;;;;;;;;;9.60;97.00;;;;;;5055389;28;19912;-83
2021/04/10 11:20:29;;;;;;;;;;;9.50;97.00;;;;;;5054707;28;19912;-86
2021/04/10 11:23:07;;;;;;;;;;;9.50;97.20;;;;;;5035961;28;19966;-85
2021/04/10 11:25:46;;;;;;;;;;;9.50;97.10;;;;;;5036474;28;19995;-84
2021/04/10 11:28:25;;;;;;;;;;;9.50;97.00;;;;;;5054174;28;20435;-85
2021/04/10 11:31:01;;;;;;;;;;;9.50;97.00;;;;;;5053554;28;20022;-85
2021/04/10 11:33:30;;;;;;;;;;;9.40;97.10;;;;;;5036357;28;19955;-86
2021/04/10 11:35:56;;;;;;;;;;;9.50;97.50;;;;;;5054261;28;19904;-82
2021/04/10 11:38:22;;;;;;;;;;;9.50;98.00;;;;;;5053925;28;20120;-84
2021/04/10 11:40:47;;;;;;;;;;;9.50;97.80;;;;;;5035536;28;20005;-85
2021/04/10 11:43:13;;;;;;;;;;;9.50;97.90;;;;;;5053326;28;19924;-85
2021/04/10 11:45:39;;;;;;;;;;;9.60;98.00;;;;;;5052564;28;20292;-85
2021/04/10 11:48:16;;;;;;;;;;;9.50;97.80;;;;;;5035593;28;20496;-85
2021/04/10 11:50:46;;;;;;;;;;;9.60;97.80;;;;;;5052840;28;20009;-85
2021/04/10 11:53:16;;;;;;;;;;;9.60;97.90;;;;;;5036186;28;19906;-85
2021/04/10 11:55:42;;;;;;;;;;;9.60;97.80;;;;;;5036227;28;19927;-85
2021/04/10 11:58:07;;;;;;;;;;;9.60;97.90;;;;;;5037225;28;19905;-85
2021/04/10 12:00:33;;;;;;;;;;;9.50;97.80;;;;;;5054807;28;20007;-85
2021/04/10 12:03:06;;;;;;;;;;;9.50;97.30;;;;;;5037952;28;19905;-84
2021/04/10 12:05:35;;;;;;;;;;;9.50;97.40;;;;;;5055794;28;19958;-85
2021/04/10 12:08:15;;;;;;;;;;;9.50;97.40;;;;;;5036868;28;19904;-85
2021/04/10 12:10:40;;;;;;;;;;;9.60;97.70;;;;;;5056963;28;19909;-84
2021/04/10 12:13:06;;;;;;;;;;;9.50;98.10;;;;;;5037297;28;19911;-85
2021/04/10 12:15:37;;;;;;;;;;;9.60;97.90;;;;;;5042540;28;20393;-84
2021/04/10 12:18:03;;;;;;;;;;;9.60;98.00;;;;;;5050037;28;19930;-84
2021/04/10 12:20:29;;;;;;;;;;;9.60;98.00;;;;;;5053868;28;19904;-84
2021/04/10 12:22:55;;;;;;;;;;;9.60;98.00;;;;;;5035504;28;19905;-83
2021/04/10 12:25:20;;;;;;;;;;;9.60;97.80;;;;;;5036273;28;19911;-85
2021/04/10 12:27:46;;;;;;;;;;;9.60;98.00;;;;;;5054029;28;19909;-84
2021/04/10 12:30:12;;;;;;;;;;;9.70;98.10;;;;;;5035717;28;19908;-84
2021/04/10 12:32:37;;;;;;;;;;;9.60;97.70;;;;;;5037237;28;19919;-85
2021/04/10 12:35:03;;;;;;;;;;;9.50;98.00;;;;;;5037062;28;19905;-84
2021/04/10 12:37:29;;;;;;;;;;;9.50;98.00;;;;;;5060094;28;19912;-84
2021/04/10 12:39:54;;;;;;;;;;;9.50;97.90;;;;;;5068233;28;19908;-84
2021/04/10 12:42:20;;;;;;;;;;;9.50;97.90;;;;;;5053057;28;19931;-84
2021/04/10 12:44:45;;;;;;;;;;;9.40;98.20;;;;;;5054918;28;19905;-84
2021/04/10 12:47:15;;;;;;;;;;;9.40;98.30;;;;;;5072611;28;19905;-82
2021/04/10 12:49:40;;;;;;;;;;;9.40;98.40;;;;;;5053785;28;19915;-82
2021/04/10 12:52:06;;;;;;;;;;;9.40;98.30;;;;;;5068254;28;19905;-83
2021/04/10 12:54:31;;;;;;;;;;;9.40;98.30;;;;;;5056923;28;19904;-84
2021/04/10 12:56:57;;;;;;;;;;;9.40;98.40;;;;;;5056746;28;19904;-85
2021/04/10 12:59:22;;;;;;;;;;;9.30;98.40;;;;;;5056468;28;19991;-85
2021/04/10 13:01:48;;;;;;;;;;;9.30;98.40;;;;;;5058262;28;19905;-85
2021/04/10 13:04:13;;;;;;;;;;;9.30;98.30;;;;;;5041010;28;19988;-84
2021/04/10 13:06:39;;;;;;;;;;;9.20;98.30;;;;;;5058417;28;20365;-85
2021/04/10 13:09:04;;;;;;;;;;;9.20;98.30;;;;;;5039797;28;20364;-84
2021/04/10 13:11:30;;;;;;;;;;;9.10;98.30;;;;;;5039894;28;20003;-85
2021/04/10 13:13:55;;;;;;;;;;;9.10;98.50;;;;;;5056832;28;19905;-84
2021/04/10 13:16:21;;;;;;;;;;;9.20;98.40;;;;;;5058114;28;19964;-84
2021/04/10 13:18:46;;;;;;;;;;;9.10;98.50;;;;;;5040416;28;19911;-85
2021/04/10 13:21:12;;;;;;;;;;;9.20;98.60;;;;;;5039699;28;19908;-85
2021/04/10 13:23:37;;;;;;;;;;;9.20;98.60;;;;;;5057917;28;19911;-85
2021/04/10 13:26:03;;;;;;;;;;;9.20;98.80;;;;;;5039093;28;19912;-84
2021/04/10 13:28:28;;;;;;;;;;;9.20;98.80;;;;;;5039287;28;20030;-84
2021/04/10 13:30:54;;;;;;;;;;;9.20;98.80;;;;;;5038074;28;20328;-84
2021/04/10 13:33:19;;;;;;;;;;;9.30;99.00;;;;;;5038140;28;19905;-85
2021/04/10 13:35:45;;;;;;;;;;;9.40;98.70;;;;;;5056388;28;19905;-85
2021/04/10 13:38:10;;;;;;;;;;;9.40;98.70;;;;;;5038524;28;19959;-84
2021/04/10 13:40:36;;;;;;;;;;;9.40;98.10;;;;;;5054881;28;19916;-83
2021/04/10 13:43:02;;;;;;;;;;;9.40;98.20;;;;;;5057738;28;20385;-84
2021/04/10 13:45:28;;;;;;;;;;;9.40;98.20;;;;;;5043464;28;19906;-84
2021/04/10 13:47:53;;;;;;;;;;;9.40;98.30;;;;;;5044186;28;19917;-84
2021/04/10 13:50:19;;;;;;;;;;;9.30;98.50;;;;;;5043803;28;20308;-84
2021/04/10 13:52:46;;;;;;;;;;;9.40;98.50;;;;;;5044280;28;19928;-85
2021/04/10 13:55:12;;;;;;;;;;;9.40;98.70;;;;;;5044328;28;19908;-84
2021/04/10 13:57:37;;;;;;;;;;;9.40;98.70;;;;;;5045636;28;19970;-84
2021/04/10 14:00:03;;;;;;;;;;;9.40;99.00;;;;;;5044478;28;19912;-84
2021/04/10 14:02:29;;;;;;;;;;;9.40;99.00;;;;;;5062903;28;19905;-85
2021/04/10 14:04:57;;;;;;;;;;;9.40;99.10;;;;;;5045202;28;20275;-84
2021/04/10 14:07:27;;;;;;;;;;;9.40;98.90;;;;;;5045368;28;19909;-84
2021/04/10 14:09:53;;;;;;;;;;;9.30;98.90;;;;;;5043083;28;19984;-82
2021/04/10 14:12:19;;;;;;;;;;;9.30;99.00;;;;;;5060748;28;19951;-84
2021/04/10 14:14:44;;;;;;;;;;;9.30;98.90;;;;;;5041876;28;20357;-84
2021/04/10 14:17:10;;;;;;;;;;;9.30;98.90;;;;;;5059897;28;19905;-84
2021/04/10 14:19:36;;;;;;;;;;;9.30;99.00;;;;;;5042632;28;19915;-85
2021/04/10 14:22:01;;;;;;;;;;;9.30;99.10;;;;;;5062528;28;19905;-84
2021/04/10 14:24:27;;;;;;;;;;;9.30;99.30;;;;;;5044047;28;20372;-85
2021/04/10 14:26:52;;;;;;;;;;;9.30;99.30;;;;;;5061729;28;19913;-84
2021/04/10 14:29:18;;;;;;;;;;;9.30;99.30;;;;;;5044171;28;19915;-84
2021/04/10 14:31:44;;;;;;;;;;;9.30;99.60;;;;;;5043721;28;19912;-84
2021/04/10 14:34:11;;;;;;;;;;;9.30;99.50;;;;;;5044667;28;19905;-84